sensor_id;sensor_type;location;lat;lon;timestamp;pressure;altitude;pressure_sealevel;temperature;humidity
60049;BME280;66154;45.544;6.756;2023-08-06T00:03:38;86902.91;;;15.02;48.22
60049;BME280;66154;45.544;6.756;2023-08-06T00:08:38;86896.16;;;15.01;47.49
60049;BME280;66154;45.544;6.756;2023-08-06T00:13:39;86894.41;;;14.98;46.96
60049;BME280;66154;45.544;6.756;2023-08-06T00:18:39;86889.00;;;14.92;47.32
60049;BME280;66154;45.544;6.756;2023-08-06T00:23:43;86886.19;;;14.87;47.41
60049;BME280;66154;45.544;6.756;2023-08-06T00:28:43;86876.84;;;14.77;46.73
60049;BME280;66154;45.544;6.756;2023-08-06T00:33:44;86887.44;;;14.68;47.61
60049;BME280;66154;45.544;6.756;2023-08-06T00:38:44;86890.16;;;14.49;48.18
60049;BME280;66154;45.544;6.756;2023-08-06T00:43:45;86888.44;;;14.37;48.72
60049;BME280;66154;45.544;6.756;2023-08-06T00:48:46;86881.97;;;14.29;48.56
60049;BME280;66154;45.544;6.756;2023-08-06T00:53:51;86883.72;;;14.23;49.06
60049;BME280;66154;45.544;6.756;2023-08-06T00:58:52;86899.28;;;14.21;48.95
60049;BME280;66154;45.544;6.756;2023-08-06T01:03:53;86892.84;;;14.22;48.60
60049;BME280;66154;45.544;6.756;2023-08-06T01:08:58;86899.59;;;14.23;47.86
60049;BME280;66154;45.544;6.756;2023-08-06T01:15:04;86899.59;;;14.23;48.64
60049;BME280;66154;45.544;6.756;2023-08-06T01:19:45;86904.47;;;14.25;48.20
60049;BME280;66154;45.544;6.756;2023-08-06T01:24:48;86904.88;;;14.23;48.55
60049;BME280;66154;45.544;6.756;2023-08-06T01:30:12;86907.22;;;14.21;47.34
60049;BME280;66154;45.544;6.756;2023-08-06T01:35:15;86892.84;;;14.22;47.58
60049;BME280;66154;45.544;6.756;2023-08-06T01:40:16;86900.78;;;14.22;48.02
60049;BME280;66154;45.544;6.756;2023-08-06T01:45:17;86905.94;;;14.17;47.58
60049;BME280;66154;45.544;6.756;2023-08-06T01:50:17;86916.78;;;14.10;47.28
60049;BME280;66154;45.544;6.756;2023-08-06T01:55:18;86904.63;;;14.03;47.55
60049;BME280;66154;45.544;6.756;2023-08-06T02:00:18;86905.78;;;14.02;47.74
60049;BME280;66154;45.544;6.756;2023-08-06T02:05:19;86913.88;;;13.99;47.51
60049;BME280;66154;45.544;6.756;2023-08-06T02:10:19;86913.72;;;13.93;47.50
60049;BME280;66154;45.544;6.756;2023-08-06T02:15:20;86904.34;;;13.83;47.46
60049;BME280;66154;45.544;6.756;2023-08-06T02:20:20;86888.63;;;13.80;47.55
60049;BME280;66154;45.544;6.756;2023-08-06T02:25:21;86882.00;;;13.75;47.52
60049;BME280;66154;45.544;6.756;2023-08-06T02:30:21;86876.75;;;13.66;48.02
60049;BME280;66154;45.544;6.756;2023-08-06T02:35:22;86860.03;;;13.51;47.77
60049;BME280;66154;45.544;6.756;2023-08-06T02:40:22;86860.75;;;13.42;48.45
60049;BME280;66154;45.544;6.756;2023-08-06T02:45:23;86866.47;;;13.32;48.81
60049;BME280;66154;45.544;6.756;2023-08-06T02:50:24;86872.16;;;13.21;48.21
60049;BME280;66154;45.544;6.756;2023-08-06T02:55:24;86876.53;;;13.15;48.35
60049;BME280;66154;45.544;6.756;2023-08-06T03:00:25;86863.63;;;13.08;48.68
60049;BME280;66154;45.544;6.756;2023-08-06T03:05:25;86861.69;;;13.00;48.24
60049;BME280;66154;45.544;6.756;2023-08-06T03:10:26;86873.56;;;12.95;48.58
60049;BME280;66154;45.544;6.756;2023-08-06T03:15:26;86864.31;;;12.91;48.50
60049;BME280;66154;45.544;6.756;2023-08-06T03:20:27;86844.09;;;12.88;49.19
60049;BME280;66154;45.544;6.756;2023-08-06T03:25:27;86849.06;;;12.86;48.69
60049;BME280;66154;45.544;6.756;2023-08-06T03:30:28;86861.06;;;12.87;48.69
60049;BME280;66154;45.544;6.756;2023-08-06T03:35:29;86877.50;;;12.91;49.00
60049;BME280;66154;45.544;6.756;2023-08-06T03:40:29;86874.00;;;12.94;48.99
60049;BME280;66154;45.544;6.756;2023-08-06T03:45:30;86876.91;;;12.87;49.67
60049;BME280;66154;45.544;6.756;2023-08-06T03:50:30;86888.19;;;12.78;50.72
60049;BME280;66154;45.544;6.756;2023-08-06T03:55:31;86886.97;;;12.70;49.82
60049;BME280;66154;45.544;6.756;2023-08-06T04:00:31;86892.78;;;12.65;51.28
60049;BME280;66154;45.544;6.756;2023-08-06T04:05:32;86882.53;;;12.58;50.05
60049;BME280;66154;45.544;6.756;2023-08-06T04:10:33;86881.47;;;12.55;50.52
60049;BME280;66154;45.544;6.756;2023-08-06T04:15:34;86883.25;;;12.49;50.88
60049;BME280;66154;45.544;6.756;2023-08-06T04:20:35;86885.81;;;12.40;49.60
60049;BME280;66154;45.544;6.756;2023-08-06T04:25:35;86885.03;;;12.31;48.24
60049;BME280;66154;45.544;6.756;2023-08-06T04:30:37;86882.81;;;12.20;47.53
60049;BME280;66154;45.544;6.756;2023-08-06T04:35:37;86890.66;;;12.11;49.09
60049;BME280;66154;45.544;6.756;2023-08-06T04:40:38;86901.00;;;12.06;51.58
60049;BME280;66154;45.544;6.756;2023-08-06T04:45:38;86901.31;;;12.08;49.37
60049;BME280;66154;45.544;6.756;2023-08-06T04:50:46;86907.19;;;12.12;49.03
60049;BME280;66154;45.544;6.756;2023-08-06T04:55:47;86904.59;;;12.21;49.72
60049;BME280;66154;45.544;6.756;2023-08-06T05:00:48;86895.25;;;12.20;49.37
60049;BME280;66154;45.544;6.756;2023-08-06T05:05:48;86914.56;;;12.17;50.35
60049;BME280;66154;45.544;6.756;2023-08-06T05:10:50;86907.38;;;12.17;49.37
60049;BME280;66154;45.544;6.756;2023-08-06T05:15:52;86900.81;;;12.22;49.15
60049;BME280;66154;45.544;6.756;2023-08-06T05:20:53;86907.13;;;12.24;49.54
60049;BME280;66154;45.544;6.756;2023-08-06T05:25:54;86880.22;;;12.29;50.19
60049;BME280;66154;45.544;6.756;2023-08-06T05:30:54;86885.66;;;12.35;49.19
60049;BME280;66154;45.544;6.756;2023-08-06T05:35:55;86882.16;;;12.38;49.40
60049;BME280;66154;45.544;6.756;2023-08-06T05:40:55;86892.13;;;12.43;49.54
60049;BME280;66154;45.544;6.756;2023-08-06T05:45:56;86899.47;;;12.48;50.10
60049;BME280;66154;45.544;6.756;2023-08-06T05:50:57;86895.41;;;12.56;49.76
60049;BME280;66154;45.544;6.756;2023-08-06T05:55:58;86902.34;;;12.62;50.07
60049;BME280;66154;45.544;6.756;2023-08-06T06:00:59;86904.06;;;12.56;50.07
60049;BME280;66154;45.544;6.756;2023-08-06T06:06:01;86903.31;;;12.56;50.18
60049;BME280;66154;45.544;6.756;2023-08-06T06:11:02;86909.47;;;12.53;51.38
60049;BME280;66154;45.544;6.756;2023-08-06T06:16:02;86927.63;;;12.51;49.98
60049;BME280;66154;45.544;6.756;2023-08-06T06:21:03;86941.41;;;12.55;50.60
60049;BME280;66154;45.544;6.756;2023-08-06T06:26:03;86942.56;;;12.54;49.37
60049;BME280;66154;45.544;6.756;2023-08-06T06:31:04;86962.91;;;12.53;51.36
60049;BME280;66154;45.544;6.756;2023-08-06T06:36:04;86972.00;;;12.52;52.22
60049;BME280;66154;45.544;6.756;2023-08-06T06:41:07;86974.47;;;12.47;52.15
60049;BME280;66154;45.544;6.756;2023-08-06T06:46:08;86971.09;;;12.46;52.93
60049;BME280;66154;45.544;6.756;2023-08-06T06:51:08;86981.50;;;12.50;49.80
60049;BME280;66154;45.544;6.756;2023-08-06T06:56:09;86977.91;;;12.56;52.71
60049;BME280;66154;45.544;6.756;2023-08-06T07:01:09;86972.50;;;12.60;52.90
60049;BME280;66154;45.544;6.756;2023-08-06T07:06:11;86981.44;;;12.62;52.27
60049;BME280;66154;45.544;6.756;2023-08-06T07:11:12;86976.31;;;12.59;51.09
60049;BME280;66154;45.544;6.756;2023-08-06T07:16:13;86970.16;;;12.62;52.20
60049;BME280;66154;45.544;6.756;2023-08-06T07:21:13;86977.38;;;12.70;49.60
60049;BME280;66154;45.544;6.756;2023-08-06T07:26:15;86968.13;;;12.66;60.39
60049;BME280;66154;45.544;6.756;2023-08-06T07:31:15;86959.78;;;12.67;52.84
60049;BME280;66154;45.544;6.756;2023-08-06T07:36:16;86975.41;;;12.84;51.35
60049;BME280;66154;45.544;6.756;2023-08-06T07:41:16;86982.69;;;12.79;53.20
60049;BME280;66154;45.544;6.756;2023-08-06T07:46:17;87001.53;;;12.69;52.31
60049;BME280;66154;45.544;6.756;2023-08-06T07:51:17;87005.84;;;12.75;53.99
60049;BME280;66154;45.544;6.756;2023-08-06T07:56:18;87009.84;;;12.89;59.98
60049;BME280;66154;45.544;6.756;2023-08-06T08:01:18;87015.78;;;13.02;51.73
60049;BME280;66154;45.544;6.756;2023-08-06T08:06:19;87020.84;;;13.09;52.51
60049;BME280;66154;45.544;6.756;2023-08-06T08:11:20;87026.16;;;13.18;52.50
60049;BME280;66154;45.544;6.756;2023-08-06T08:16:20;87016.91;;;13.23;51.22
60049;BME280;66154;45.544;6.756;2023-08-06T08:21:21;87017.50;;;13.27;52.57
60049;BME280;66154;45.544;6.756;2023-08-06T08:26:21;87021.94;;;13.30;52.67
60049;BME280;66154;45.544;6.756;2023-08-06T08:31:22;87015.78;;;13.33;53.03
60049;BME280;66154;45.544;6.756;2023-08-06T08:36:22;87011.56;;;13.44;51.09
60049;BME280;66154;45.544;6.756;2023-08-06T08:41:23;87021.97;;;13.48;49.92
60049;BME280;66154;45.544;6.756;2023-08-06T08:46:25;87033.56;;;13.41;49.47
60049;BME280;66154;45.544;6.756;2023-08-06T08:51:29;87033.81;;;13.34;54.80
60049;BME280;66154;45.544;6.756;2023-08-06T08:56:30;87056.25;;;13.30;52.46
60049;BME280;66154;45.544;6.756;2023-08-06T09:01:32;87048.59;;;13.23;51.75
60049;BME280;66154;45.544;6.756;2023-08-06T09:06:36;87048.41;;;13.17;50.83
60049;BME280;66154;45.544;6.756;2023-08-06T09:11:42;87051.97;;;13.23;52.54
60049;BME280;66154;45.544;6.756;2023-08-06T09:16:43;87056.16;;;13.42;52.41
60049;BME280;66154;45.544;6.756;2023-08-06T09:21:45;87066.78;;;13.60;49.33
60049;BME280;66154;45.544;6.756;2023-08-06T09:26:48;87058.56;;;13.58;51.80
60049;BME280;66154;45.544;6.756;2023-08-06T09:31:50;87066.19;;;13.65;54.81
60049;BME280;66154;45.544;6.756;2023-08-06T09:36:54;87065.50;;;13.74;52.60
60049;BME280;66154;45.544;6.756;2023-08-06T09:41:59;87050.50;;;13.71;52.69
60049;BME280;66154;45.544;6.756;2023-08-06T09:47:02;87066.63;;;13.64;52.70
60049;BME280;66154;45.544;6.756;2023-08-06T09:52:05;87069.66;;;13.84;49.59
60049;BME280;66154;45.544;6.756;2023-08-06T09:57:05;87061.72;;;13.93;51.63
60049;BME280;66154;45.544;6.756;2023-08-06T10:02:12;87088.31;;;13.90;56.91
60049;BME280;66154;45.544;6.756;2023-08-06T10:07:14;87116.56;;;13.71;53.41
60049;BME280;66154;45.544;6.756;2023-08-06T10:12:15;87088.97;;;13.63;54.45
60049;BME280;66154;45.544;6.756;2023-08-06T10:17:18;87105.63;;;13.51;52.67
60049;BME280;66154;45.544;6.756;2023-08-06T10:22:19;87105.63;;;13.51;52.93
60049;BME280;66154;45.544;6.756;2023-08-06T10:32:46;87071.09;;;13.85;50.15
60049;BME280;66154;45.544;6.756;2023-08-06T10:37:48;87075.69;;;14.12;51.34
60049;BME280;66154;45.544;6.756;2023-08-06T10:42:48;87078.56;;;14.44;50.05
60049;BME280;66154;45.544;6.756;2023-08-06T10:47:49;87086.19;;;14.61;49.54
60049;BME280;66154;45.544;6.756;2023-08-06T10:52:50;87095.78;;;14.67;49.41
60049;BME280;66154;45.544;6.756;2023-08-06T10:57:51;87094.44;;;14.72;50.06
60049;BME280;66154;45.544;6.756;2023-08-06T11:02:53;87098.41;;;14.76;49.76
60049;BME280;66154;45.544;6.756;2023-08-06T11:07:54;87100.59;;;14.78;49.62
60049;BME280;66154;45.544;6.756;2023-08-06T11:12:54;87098.41;;;14.67;49.21
60049;BME280;66154;45.544;6.756;2023-08-06T11:17:55;87093.25;;;14.64;49.69
60049;BME280;66154;45.544;6.756;2023-08-06T11:22:55;87098.09;;;14.83;51.44
60049;BME280;66154;45.544;6.756;2023-08-06T11:27:56;87102.69;;;14.83;50.21
60049;BME280;66154;45.544;6.756;2023-08-06T11:32:56;87096.78;;;14.88;50.65
60049;BME280;66154;45.544;6.756;2023-08-06T11:37:57;87098.97;;;14.98;50.09
60049;BME280;66154;45.544;6.756;2023-08-06T11:42:57;87094.84;;;15.06;50.49
60049;BME280;66154;45.544;6.756;2023-08-06T11:47:58;87098.63;;;15.23;49.65
60049;BME280;66154;45.544;6.756;2023-08-06T11:53:00;87100.09;;;15.42;50.35
60049;BME280;66154;45.544;6.756;2023-08-06T11:58:04;87091.84;;;15.50;50.31
60049;BME280;66154;45.544;6.756;2023-08-06T12:03:05;87074.16;;;15.56;49.32
60049;BME280;66154;45.544;6.756;2023-08-06T12:08:06;87071.28;;;15.68;49.44
60049;BME280;66154;45.544;6.756;2023-08-06T12:13:06;87067.06;;;15.94;49.14
60049;BME280;66154;45.544;6.756;2023-08-06T12:18:07;87086.59;;;16.06;48.98
60049;BME280;66154;45.544;6.756;2023-08-06T12:23:08;87085.28;;;16.01;49.48
60049;BME280;66154;45.544;6.756;2023-08-06T12:28:10;87073.78;;;16.04;48.72
60049;BME280;66154;45.544;6.756;2023-08-06T12:33:10;87073.63;;;16.08;47.53
60049;BME280;66154;45.544;6.756;2023-08-06T12:38:11;87067.94;;;16.00;47.79
60049;BME280;66154;45.544;6.756;2023-08-06T12:43:11;87074.19;;;16.12;47.27
60049;BME280;66154;45.544;6.756;2023-08-06T12:48:12;87067.75;;;16.27;46.96
60049;BME280;66154;45.544;6.756;2023-08-06T12:53:13;87065.38;;;16.29;47.03
60049;BME280;66154;45.544;6.756;2023-08-06T12:58:14;87074.03;;;16.63;45.94
60049;BME280;66154;45.544;6.756;2023-08-06T13:03:14;87066.84;;;16.78;44.55
60049;BME280;66154;45.544;6.756;2023-08-06T13:08:15;87064.97;;;17.07;47.71
60049;BME280;66154;45.544;6.756;2023-08-06T13:13:16;87065.38;;;17.30;45.86
60049;BME280;66154;45.544;6.756;2023-08-06T13:18:16;87077.13;;;17.52;45.68
60049;BME280;66154;45.544;6.756;2023-08-06T13:23:17;87076.63;;;17.68;47.02
60049;BME280;66154;45.544;6.756;2023-08-06T13:28:17;87093.63;;;17.56;46.08
60049;BME280;66154;45.544;6.756;2023-08-06T13:33:18;87097.38;;;17.64;47.07
60049;BME280;66154;45.544;6.756;2023-08-06T13:38:18;87107.44;;;17.75;47.41
60049;BME280;66154;45.544;6.756;2023-08-06T13:43:19;87108.47;;;17.48;47.19
60049;BME280;66154;45.544;6.756;2023-08-06T13:48:19;87124.59;;;17.59;48.65
60049;BME280;66154;45.544;6.756;2023-08-06T13:53:20;87102.78;;;19.09;49.51
60049;BME280;66154;45.544;6.756;2023-08-06T13:58:20;87094.03;;;19.28;48.99
60049;BME280;66154;45.544;6.756;2023-08-06T14:03:21;87097.78;;;18.96;45.25
60049;BME280;66154;45.544;6.756;2023-08-06T14:08:25;87134.44;;;18.32;45.74
60049;BME280;66154;45.544;6.756;2023-08-06T14:13:25;87135.78;;;17.92;47.77
60049;BME280;66154;45.544;6.756;2023-08-06T14:18:26;87115.97;;;18.77;51.89
60049;BME280;66154;45.544;6.756;2023-08-06T14:23:27;87123.88;;;18.92;46.04
60049;BME280;66154;45.544;6.756;2023-08-06T14:28:28;87134.88;;;18.30;47.28
60049;BME280;66154;45.544;6.756;2023-08-06T14:33:28;87137.41;;;17.90;45.22
60049;BME280;66154;45.544;6.756;2023-08-06T14:38:29;87124.03;;;17.99;48.12
60049;BME280;66154;45.544;6.756;2023-08-06T14:43:30;87111.16;;;18.81;48.19
60049;BME280;66154;45.544;6.756;2023-08-06T14:48:30;87116.38;;;19.56;47.50
60049;BME280;66154;45.544;6.756;2023-08-06T14:53:31;87113.59;;;20.22;48.82
60049;BME280;66154;45.544;6.756;2023-08-06T14:58:31;87117.41;;;20.95;46.33
60049;BME280;66154;45.544;6.756;2023-08-06T15:03:32;87119.84;;;20.98;45.12
60049;BME280;66154;45.544;6.756;2023-08-06T15:08:33;87118.16;;;20.95;45.94
60049;BME280;66154;45.544;6.756;2023-08-06T15:13:34;87123.50;;;20.53;42.68
60049;BME280;66154;45.544;6.756;2023-08-06T15:18:34;87128.63;;;19.68;44.51
60049;BME280;66154;45.544;6.756;2023-08-06T15:23:35;87132.69;;;19.18;45.81
60049;BME280;66154;45.544;6.756;2023-08-06T15:28:36;87148.69;;;18.63;46.16
60049;BME280;66154;45.544;6.756;2023-08-06T15:33:37;87144.19;;;18.05;47.07
60049;BME280;66154;45.544;6.756;2023-08-06T15:38:38;87156.88;;;17.67;46.96
60049;BME280;66154;45.544;6.756;2023-08-06T15:43:40;87160.16;;;17.76;47.20
60049;BME280;66154;45.544;6.756;2023-08-06T15:48:43;87161.44;;;17.52;46.96
60049;BME280;66154;45.544;6.756;2023-08-06T15:53:45;87176.41;;;17.25;45.64
60049;BME280;66154;45.544;6.756;2023-08-06T15:58:46;87195.81;;;16.70;46.17
60049;BME280;66154;45.544;6.756;2023-08-06T16:03:47;87186.59;;;16.56;47.94
60049;BME280;66154;45.544;6.756;2023-08-06T16:08:47;87196.94;;;16.45;47.73
60049;BME280;66154;45.544;6.756;2023-08-06T16:13:48;87190.34;;;16.41;48.30
60049;BME280;66154;45.544;6.756;2023-08-06T16:18:49;87181.72;;;16.55;48.36
60049;BME280;66154;45.544;6.756;2023-08-06T16:23:50;87184.50;;;16.84;48.35
60049;BME280;66154;45.544;6.756;2023-08-06T16:28:50;87176.19;;;17.14;48.71
60049;BME280;66154;45.544;6.756;2023-08-06T16:33:51;87180.97;;;17.25;48.67
60049;BME280;66154;45.544;6.756;2023-08-06T16:38:52;87179.38;;;17.04;47.34
60049;BME280;66154;45.544;6.756;2023-08-06T16:43:53;87194.09;;;16.58;47.49
60049;BME280;66154;45.544;6.756;2023-08-06T16:48:53;87184.06;;;16.29;47.99
60049;BME280;66154;45.544;6.756;2023-08-06T16:53:54;87182.16;;;16.20;47.87
60049;BME280;66154;45.544;6.756;2023-08-06T16:58:55;87186.03;;;16.10;47.91
60049;BME280;66154;45.544;6.756;2023-08-06T17:03:55;87191.38;;;16.01;47.95
60049;BME280;66154;45.544;6.756;2023-08-06T17:08:56;87200.53;;;15.91;48.35
60049;BME280;66154;45.544;6.756;2023-08-06T17:13:56;87202.25;;;16.03;48.18
60049;BME280;66154;45.544;6.756;2023-08-06T17:18:57;87205.41;;;15.84;48.20
60049;BME280;66154;45.544;6.756;2023-08-06T17:23:57;87223.56;;;15.67;49.00
60049;BME280;66154;45.544;6.756;2023-08-06T17:29:01;87215.34;;;15.47;48.28
60049;BME280;66154;45.544;6.756;2023-08-06T17:34:02;87224.44;;;15.28;47.88
60049;BME280;66154;45.544;6.756;2023-08-06T17:39:03;87228.97;;;15.00;48.19
60049;BME280;66154;45.544;6.756;2023-08-06T17:44:04;87225.00;;;14.87;48.91
60049;BME280;66154;45.544;6.756;2023-08-06T17:49:06;87228.22;;;14.73;48.80
60049;BME280;66154;45.544;6.756;2023-08-06T17:54:08;87229.22;;;14.57;48.81
60049;BME280;66154;45.544;6.756;2023-08-06T17:59:09;87233.00;;;14.38;48.56
60049;BME280;66154;45.544;6.756;2023-08-06T18:04:10;87228.78;;;14.19;48.25
60049;BME280;66154;45.544;6.756;2023-08-06T18:09:11;87228.56;;;14.04;48.05
60049;BME280;66154;45.544;6.756;2023-08-06T18:14:11;87236.16;;;13.93;48.26
60049;BME280;66154;45.544;6.756;2023-08-06T18:19:12;87232.16;;;13.89;49.11
60049;BME280;66154;45.544;6.756;2023-08-06T18:24:13;87239.47;;;13.85;48.66
60049;BME280;66154;45.544;6.756;2023-08-06T18:29:13;87237.28;;;13.83;49.19
60049;BME280;66154;45.544;6.756;2023-08-06T18:34:14;87244.41;;;13.74;49.27
60049;BME280;66154;45.544;6.756;2023-08-06T18:39:14;87258.13;;;13.59;49.45
60049;BME280;66154;45.544;6.756;2023-08-06T18:44:15;87255.44;;;13.50;49.48
60049;BME280;66154;45.544;6.756;2023-08-06T18:49:15;87255.25;;;13.45;49.26
60049;BME280;66154;45.544;6.756;2023-08-06T18:54:16;87273.06;;;13.32;51.08
60049;BME280;66154;45.544;6.756;2023-08-06T18:59:17;87275.38;;;13.08;50.65
60049;BME280;66154;45.544;6.756;2023-08-06T19:04:22;87272.00;;;12.95;49.84
60049;BME280;66154;45.544;6.756;2023-08-06T19:09:24;87273.81;;;12.86;51.39
60049;BME280;66154;45.544;6.756;2023-08-06T19:14:25;87277.72;;;12.81;50.47
60049;BME280;66154;45.544;6.756;2023-08-06T19:19:26;87295.38;;;12.71;50.39
60049;BME280;66154;45.544;6.756;2023-08-06T19:24:27;87289.69;;;12.60;49.82
60049;BME280;66154;45.544;6.756;2023-08-06T19:29:28;87293.09;;;12.48;50.65
60049;BME280;66154;45.544;6.756;2023-08-06T19:34:28;87301.34;;;12.38;54.05
60049;BME280;66154;45.544;6.756;2023-08-06T19:39:29;87312.28;;;12.24;50.36
60049;BME280;66154;45.544;6.756;2023-08-06T19:44:29;87307.00;;;12.11;50.94
60049;BME280;66154;45.544;6.756;2023-08-06T19:49:30;87307.31;;;12.01;52.32
60049;BME280;66154;45.544;6.756;2023-08-06T19:54:30;87306.56;;;12.00;52.23
60049;BME280;66154;45.544;6.756;2023-08-06T19:59:31;87302.47;;;11.99;51.60
60049;BME280;66154;45.544;6.756;2023-08-06T20:04:32;87312.88;;;11.90;52.17
60049;BME280;66154;45.544;6.756;2023-08-06T20:09:32;87319.75;;;11.88;52.54
60049;BME280;66154;45.544;6.756;2023-08-06T20:14:33;87325.72;;;11.88;51.99
60049;BME280;66154;45.544;6.756;2023-08-06T20:19:34;87323.53;;;11.86;49.49
60049;BME280;66154;45.544;6.756;2023-08-06T20:24:34;87329.00;;;11.79;51.33
60049;BME280;66154;45.544;6.756;2023-08-06T20:29:35;87319.22;;;11.80;52.91
60049;BME280;66154;45.544;6.756;2023-08-06T20:34:35;87321.53;;;11.78;50.40
60049;BME280;66154;45.544;6.756;2023-08-06T20:39:36;87321.28;;;11.72;52.20
60049;BME280;66154;45.544;6.756;2023-08-06T20:44:37;87320.06;;;11.61;51.79
60049;BME280;66154;45.544;6.756;2023-08-06T20:49:38;87329.09;;;11.47;51.44
60049;BME280;66154;45.544;6.756;2023-08-06T20:54:38;87328.03;;;11.45;51.65
60049;BME280;66154;45.544;6.756;2023-08-06T20:59:39;87326.66;;;11.40;50.84
60049;BME280;66154;45.544;6.756;2023-08-06T21:04:41;87323.88;;;11.31;48.92
60049;BME280;66154;45.544;6.756;2023-08-06T21:09:41;87329.72;;;11.23;50.90
60049;BME280;66154;45.544;6.756;2023-08-06T21:14:42;87331.38;;;11.17;51.34
60049;BME280;66154;45.544;6.756;2023-08-06T21:19:42;87327.28;;;11.16;51.52
60049;BME280;66154;45.544;6.756;2023-08-06T21:24:43;87331.38;;;11.17;51.78
60049;BME280;66154;45.544;6.756;2023-08-06T21:29:43;87332.56;;;11.16;52.11
60049;BME280;66154;45.544;6.756;2023-08-06T21:34:44;87335.50;;;11.18;52.58
60049;BME280;66154;45.544;6.756;2023-08-06T21:39:45;87335.09;;;11.19;52.03
60049;BME280;66154;45.544;6.756;2023-08-06T21:44:45;87337.41;;;11.17;52.03
60049;BME280;66154;45.544;6.756;2023-08-06T21:49:46;87339.38;;;11.13;50.30
60049;BME280;66154;45.544;6.756;2023-08-06T21:54:46;87337.59;;;11.10;52.18
60049;BME280;66154;45.544;6.756;2023-08-06T21:59:47;87338.34;;;11.11;49.86
60049;BME280;66154;45.544;6.756;2023-08-06T22:04:48;87346.16;;;10.98;61.61
60049;BME280;66154;45.544;6.756;2023-08-06T22:09:48;87345.34;;;10.85;56.28
60049;BME280;66154;45.544;6.756;2023-08-06T22:14:49;87343.63;;;10.78;48.72
60049;BME280;66154;45.544;6.756;2023-08-06T22:19:49;87345.34;;;10.69;52.20
60049;BME280;66154;45.544;6.756;2023-08-06T22:24:50;87352.25;;;10.63;54.18
60049;BME280;66154;45.544;6.756;2023-08-06T22:29:50;87351.88;;;10.64;54.28
60049;BME280;66154;45.544;6.756;2023-08-06T22:34:51;87354.41;;;10.68;53.10
60049;BME280;66154;45.544;6.756;2023-08-06T22:39:52;87357.75;;;10.68;52.13
60049;BME280;66154;45.544;6.756;2023-08-06T22:44:58;87356.63;;;10.69;54.76
60049;BME280;66154;45.544;6.756;2023-08-06T22:49:59;87362.69;;;10.66;54.59
60049;BME280;66154;45.544;6.756;2023-08-06T22:54:59;87366.88;;;10.64;54.51
60049;BME280;66154;45.544;6.756;2023-08-06T23:00:00;87370.25;;;10.64;51.32
60049;BME280;66154;45.544;6.756;2023-08-06T23:05:01;87361.63;;;10.64;53.30
60049;BME280;66154;45.544;6.756;2023-08-06T23:10:01;87364.25;;;10.64;49.74
60049;BME280;66154;45.544;6.756;2023-08-06T23:15:04;87361.06;;;10.56;54.13
60049;BME280;66154;45.544;6.756;2023-08-06T23:20:06;87357.03;;;10.52;55.00
60049;BME280;66154;45.544;6.756;2023-08-06T23:25:08;87353.56;;;10.39;55.93
60049;BME280;66154;45.544;6.756;2023-08-06T23:30:09;87365.13;;;10.25;56.16
60049;BME280;66154;45.544;6.756;2023-08-06T23:35:09;87360.53;;;10.29;55.41
60049;BME280;66154;45.544;6.756;2023-08-06T23:40:10;87355.94;;;10.33;54.03
60049;BME280;66154;45.544;6.756;2023-08-06T23:45:11;87352.16;;;10.34;52.93
60049;BME280;66154;45.544;6.756;2023-08-06T23:50:11;87343.94;;;10.32;52.30
60049;BME280;66154;45.544;6.756;2023-08-06T23:55:12;87348.44;;;10.32;52.99
